createdAt,value
2022-10-14T00:00:52.462Z,18.81
2022-10-14T00:03:19.166Z,18.84
2022-10-14T00:05:46.299Z,18.94
2022-10-14T00:08:15.216Z,18.60
2022-10-14T00:10:42.119Z,18.54
2022-10-14T00:13:09.313Z,18.70
2022-10-14T00:15:40.990Z,18.34
2022-10-14T00:18:10.376Z,18.61
2022-10-14T00:20:37.348Z,18.57
2022-10-14T00:23:04.198Z,18.64
2022-10-14T00:25:31.245Z,18.39
2022-10-14T00:27:58.121Z,18.57
2022-10-14T00:30:25.105Z,18.36
2022-10-14T00:32:51.978Z,18.25
2022-10-14T00:35:19.041Z,18.11
2022-10-14T00:37:46.174Z,18.17
2022-10-14T00:40:13.128Z,18.43
2022-10-14T00:42:39.992Z,18.52
2022-10-14T00:45:21.829Z,18.73
2022-10-14T00:47:51.380Z,18.75
2022-10-14T00:50:20.787Z,18.65
2022-10-14T00:52:47.887Z,18.79
2022-10-14T00:55:17.924Z,18.71
2022-10-14T00:57:45.282Z,18.57
2022-10-14T01:00:19.199Z,18.12
2022-10-14T01:02:47.877Z,18.17
2022-10-14T01:05:17.935Z,18.34
2022-10-14T01:08:09.023Z,18.23
2022-10-14T01:11:11.620Z,18.59
2022-10-14T01:13:48.215Z,18.54
2022-10-14T01:16:54.240Z,18.66
2022-10-14T01:19:45.852Z,18.78
2022-10-14T01:22:27.370Z,18.63
2022-10-14T01:25:19.144Z,18.71
2022-10-14T01:28:03.219Z,18.82
2022-10-14T01:30:34.661Z,18.42
2022-10-14T01:33:11.565Z,18.65
2022-10-14T01:36:08.659Z,18.15
2022-10-14T01:38:41.607Z,18.27
2022-10-14T01:41:22.866Z,18.31
2022-10-14T01:43:51.805Z,18.16
2022-10-14T01:46:22.079Z,17.83
2022-10-14T01:48:53.567Z,18.38
2022-10-14T01:51:26.962Z,18.55
2022-10-14T01:53:58.976Z,18.26
2022-10-14T01:56:28.643Z,17.77
2022-10-14T01:58:59.749Z,18.14
2022-10-14T02:01:27.129Z,18.37
2022-10-14T02:03:54.279Z,18.38
2022-10-14T02:06:43.425Z,18.31
2022-10-14T02:09:25.605Z,18.46
2022-10-14T02:12:23.142Z,17.74
2022-10-14T02:15:14.849Z,17.65
2022-10-14T02:17:51.245Z,17.75
2022-10-14T02:20:24.442Z,18.13
2022-10-14T02:23:20.553Z,17.65
2022-10-14T02:25:49.426Z,17.85
2022-10-14T02:28:21.381Z,17.88
2022-10-14T02:30:53.484Z,18.15
2022-10-14T02:33:26.913Z,18.23
2022-10-14T02:35:55.995Z,18.28
2022-10-14T02:38:25.648Z,18.05
2022-10-14T02:40:53.888Z,18.11
2022-10-14T02:43:20.751Z,18.18
2022-10-14T02:45:47.496Z,17.92
2022-10-14T02:48:14.295Z,18.00
2022-10-14T02:50:42.276Z,18.07
2022-10-14T02:53:14.259Z,18.16
2022-10-14T02:55:44.064Z,18.20
2022-10-14T02:58:10.813Z,17.92
2022-10-14T03:00:37.747Z,18.03
2022-10-14T03:03:06.323Z,17.96
2022-10-14T03:05:33.220Z,17.74
2022-10-14T03:08:01.618Z,17.82
2022-10-14T03:10:29.930Z,17.99
2022-10-14T03:12:57.806Z,17.97
2022-10-14T03:15:34.285Z,17.91
2022-10-14T03:18:01.199Z,17.54
2022-10-14T03:20:37.807Z,17.66
2022-10-14T03:23:07.044Z,17.60
2022-10-14T03:25:36.798Z,17.23
2022-10-14T03:28:14.814Z,17.55
2022-10-14T03:31:02.040Z,17.48
2022-10-14T03:34:07.378Z,17.75
2022-10-14T03:36:36.749Z,17.43
2022-10-14T03:39:05.195Z,17.42
2022-10-14T03:41:37.772Z,17.04
2022-10-14T03:44:06.464Z,17.25
2022-10-14T03:46:35.220Z,17.10
2022-10-14T03:49:03.220Z,17.36
2022-10-14T03:51:29.969Z,17.61
2022-10-14T03:54:07.667Z,17.35
2022-10-14T03:56:35.451Z,17.55
2022-10-14T03:59:02.862Z,17.57
2022-10-14T04:01:29.845Z,17.42
2022-10-14T04:04:19.340Z,17.18
2022-10-14T04:06:47.137Z,17.09
2022-10-14T04:09:16.268Z,16.89
2022-10-14T04:11:43.386Z,17.05
2022-10-14T04:14:24.960Z,17.09
2022-10-14T04:16:51.948Z,17.04
2022-10-14T04:19:20.116Z,17.14
2022-10-14T04:21:47.304Z,16.95
2022-10-14T04:24:15.887Z,17.14
2022-10-14T04:26:52.304Z,17.48
2022-10-14T04:29:45.509Z,17.79
2022-10-14T04:32:22.651Z,17.33
2022-10-14T04:34:50.023Z,17.50
2022-10-14T04:37:20.389Z,17.46
2022-10-14T04:39:54.479Z,16.93
2022-10-14T04:42:22.190Z,17.03
2022-10-14T04:44:52.765Z,17.22
2022-10-14T04:47:26.366Z,17.12
2022-10-14T04:49:58.430Z,17.50
2022-10-14T04:52:27.897Z,17.52
2022-10-14T04:55:01.023Z,17.64
2022-10-14T04:57:40.506Z,17.40
2022-10-14T05:00:08.126Z,17.47
2022-10-14T05:02:44.991Z,17.83
2022-10-14T05:05:14.965Z,18.13
2022-10-14T05:07:44.003Z,17.95
2022-10-14T05:10:22.613Z,17.98
2022-10-14T05:12:50.114Z,17.70
2022-10-14T05:15:18.432Z,17.57
2022-10-14T05:17:55.519Z,17.72
2022-10-14T05:20:29.038Z,17.30
2022-10-14T05:22:57.768Z,17.81
2022-10-14T05:25:24.955Z,18.07
2022-10-14T05:27:53.748Z,18.19
2022-10-14T05:30:21.212Z,18.24
2022-10-14T05:32:53.028Z,18.20
2022-10-14T05:35:39.879Z,18.20
2022-10-14T05:38:08.545Z,18.30
2022-10-14T05:40:39.390Z,18.02
2022-10-14T05:43:06.789Z,18.30
2022-10-14T05:45:36.261Z,18.46
2022-10-14T05:48:03.160Z,18.40
2022-10-14T05:50:30.173Z,18.10
2022-10-14T05:53:01.890Z,18.23
2022-10-14T05:55:38.180Z,18.31
2022-10-14T05:58:05.242Z,18.39
2022-10-14T06:00:37.445Z,18.48
2022-10-14T06:03:11.942Z,17.99
2022-10-14T06:05:40.210Z,18.06
2022-10-14T06:08:08.979Z,18.24
2022-10-14T06:10:38.276Z,18.14
2022-10-14T06:13:05.286Z,18.04
2022-10-14T06:15:36.393Z,18.31
2022-10-14T06:18:03.841Z,18.29
2022-10-14T06:20:31.713Z,18.32
2022-10-14T06:23:02.407Z,18.47
2022-10-14T06:25:30.256Z,17.87
2022-10-14T06:28:03.784Z,18.06
2022-10-14T06:30:31.435Z,18.32
2022-10-14T06:32:58.283Z,18.28
2022-10-14T06:35:25.118Z,18.51
2022-10-14T06:37:52.047Z,18.38
2022-10-14T06:40:19.002Z,18.40
2022-10-14T06:42:45.853Z,18.24
2022-10-14T06:45:12.893Z,17.77
2022-10-14T06:47:39.698Z,18.09
2022-10-14T06:50:07.233Z,18.46
2022-10-14T06:52:34.027Z,18.55
2022-10-14T06:55:01.172Z,18.27
2022-10-14T06:57:27.800Z,17.90
2022-10-14T06:59:54.556Z,18.19
2022-10-14T07:02:21.647Z,18.18
2022-10-14T07:04:48.688Z,18.42
2022-10-14T07:07:15.654Z,18.29
2022-10-14T07:09:42.448Z,18.54
2022-10-14T07:12:09.178Z,18.87
2022-10-14T07:14:36.082Z,18.15
2022-10-14T07:17:02.982Z,18.59
2022-10-14T07:19:29.757Z,18.60
2022-10-14T07:21:56.514Z,18.78
2022-10-14T07:24:23.404Z,18.64
2022-10-14T07:26:50.141Z,18.58
2022-10-14T07:29:17.326Z,18.66
2022-10-14T07:31:44.203Z,18.79
2022-10-14T07:34:10.941Z,18.75
2022-10-14T07:36:37.819Z,18.95
2022-10-14T07:39:05.892Z,18.93
2022-10-14T07:41:33.671Z,18.93
2022-10-14T07:44:06.110Z,18.56
2022-10-14T07:46:35.265Z,18.36
2022-10-14T07:49:05.991Z,18.49
2022-10-14T07:51:33.677Z,18.03
2022-10-14T07:54:02.313Z,17.93
2022-10-14T07:56:30.279Z,18.02
2022-10-14T07:58:58.516Z,18.15
2022-10-14T08:01:25.523Z,18.85
2022-10-14T08:03:52.403Z,18.71
2022-10-14T08:06:19.551Z,19.00
2022-10-14T08:08:46.601Z,19.38
2022-10-14T08:11:22.431Z,18.76
2022-10-14T08:13:50.084Z,17.99
2022-10-14T08:16:28.507Z,18.93
2022-10-14T08:18:57.825Z,18.92
2022-10-14T08:21:25.351Z,18.42
2022-10-14T08:23:53.009Z,18.83
2022-10-14T08:26:26.890Z,19.40
2022-10-14T08:28:54.088Z,18.76
2022-10-14T08:31:21.203Z,19.41
2022-10-14T08:33:48.282Z,19.39
2022-10-14T08:36:16.061Z,19.39
2022-10-14T08:38:42.888Z,19.21
2022-10-14T08:41:12.785Z,19.46
2022-10-14T08:44:16.970Z,19.85
2022-10-14T08:46:52.479Z,19.67
2022-10-14T08:49:26.164Z,19.98
2022-10-14T08:51:59.371Z,19.48
2022-10-14T08:54:40.558Z,19.33
2022-10-14T08:57:21.085Z,19.47
2022-10-14T08:59:48.817Z,19.30
2022-10-14T09:02:24.741Z,19.81
2022-10-14T09:04:51.619Z,19.12
2022-10-14T09:07:20.736Z,19.57
2022-10-14T09:09:56.882Z,19.98
2022-10-14T09:12:29.794Z,19.71
2022-10-14T09:15:07.959Z,19.68
2022-10-14T09:17:40.667Z,19.37
2022-10-14T09:20:16.501Z,19.53
2022-10-14T09:22:43.504Z,19.41
2022-10-14T09:25:15.711Z,19.75
2022-10-14T09:27:43.007Z,19.48
2022-10-14T09:30:16.030Z,20.20
2022-10-14T09:32:46.629Z,19.90
2022-10-14T09:35:25.266Z,19.91
2022-10-14T09:37:53.462Z,20.06
2022-10-14T09:40:35.577Z,19.94
2022-10-14T09:43:10.506Z,19.55
2022-10-14T09:45:46.446Z,20.16
2022-10-14T09:48:33.860Z,20.55
2022-10-14T09:51:03.110Z,20.30
2022-10-14T09:53:38.532Z,20.86
2022-10-14T09:56:08.096Z,20.86
2022-10-14T09:58:53.915Z,21.01
2022-10-14T10:01:23.432Z,21.17
2022-10-14T10:03:52.511Z,21.44
2022-10-14T10:06:23.483Z,21.73
2022-10-14T10:08:53.557Z,21.18
2022-10-14T10:11:33.421Z,21.87
2022-10-14T10:14:21.000Z,21.49
2022-10-14T10:16:48.581Z,21.65
2022-10-14T10:19:29.070Z,21.02
2022-10-14T10:22:29.493Z,21.60
2022-10-14T10:25:01.900Z,21.55
2022-10-14T10:27:36.649Z,21.50
2022-10-14T10:30:24.713Z,21.86
2022-10-14T10:33:08.167Z,21.80
2022-10-14T10:36:06.469Z,21.97
2022-10-14T10:39:07.908Z,21.83
2022-10-14T10:41:40.889Z,22.41
2022-10-14T10:44:07.721Z,21.13
2022-10-14T10:46:55.793Z,21.31
2022-10-14T10:49:42.420Z,21.64
2022-10-14T10:52:41.187Z,21.47
2022-10-14T10:55:18.397Z,21.68
2022-10-14T10:57:57.073Z,22.12
2022-10-14T11:03:27.850Z,22.31
2022-10-14T11:06:46.994Z,22.47
2022-10-14T11:09:43.696Z,22.28
2022-10-14T11:12:28.456Z,22.87
2022-10-14T11:15:01.290Z,22.93
2022-10-14T11:17:46.605Z,22.40
2022-10-14T11:20:22.720Z,22.85
2022-10-14T11:23:19.045Z,22.48
2022-10-14T11:25:51.883Z,22.86
2022-10-14T11:28:30.253Z,22.61
2022-10-14T11:31:08.443Z,22.22
2022-10-14T11:33:47.211Z,22.06
2022-10-14T11:36:40.187Z,22.98
2022-10-14T11:39:24.659Z,22.75
2022-10-14T11:42:13.777Z,22.86
2022-10-14T11:44:43.240Z,23.23
2022-10-14T11:47:22.688Z,23.72
2022-10-14T11:49:59.930Z,23.72
2022-10-14T11:52:31.647Z,22.74
2022-10-14T11:55:29.088Z,23.05
2022-10-14T11:58:02.644Z,23.83
2022-10-14T12:00:52.050Z,23.94
2022-10-14T12:03:36.678Z,23.62
2022-10-14T12:06:12.920Z,24.48
2022-10-14T12:08:55.516Z,23.53
2022-10-14T12:11:35.129Z,23.39
2022-10-14T12:14:07.682Z,23.46
2022-10-14T12:16:34.534Z,23.77
2022-10-14T12:19:01.802Z,22.64
2022-10-14T12:21:56.184Z,23.05
2022-10-14T12:24:31.355Z,23.90
2022-10-14T12:27:01.886Z,24.02
2022-10-14T12:29:32.693Z,23.80
2022-10-14T12:32:06.412Z,23.38
2022-10-14T12:34:36.095Z,22.47
2022-10-14T12:37:28.759Z,23.06
2022-10-14T12:40:07.093Z,23.25
2022-10-14T12:42:57.921Z,23.35
2022-10-14T12:45:26.811Z,23.16
2022-10-14T12:48:15.492Z,23.01
2022-10-14T12:50:48.009Z,23.13
2022-10-14T12:53:26.833Z,23.41
2022-10-14T12:56:02.374Z,22.52
2022-10-14T12:58:32.000Z,22.98
2022-10-14T13:01:03.263Z,22.40
2022-10-14T13:03:42.366Z,22.71
2022-10-14T13:06:41.108Z,22.78
2022-10-14T13:09:15.140Z,22.01
2022-10-14T13:12:04.942Z,22.62
2022-10-14T13:14:59.522Z,22.18
2022-10-14T13:17:46.684Z,23.01
2022-10-14T13:20:35.303Z,23.51
2022-10-14T13:23:31.535Z,22.26
2022-10-14T13:26:34.989Z,22.72
2022-10-14T13:29:16.379Z,21.98
2022-10-14T13:32:01.799Z,22.42
2022-10-14T13:34:43.841Z,22.56
2022-10-14T13:37:32.171Z,21.67
2022-10-14T13:40:08.847Z,21.83
2022-10-14T13:42:39.618Z,21.21
2022-10-14T13:45:16.989Z,21.96
2022-10-14T13:47:48.785Z,22.42
2022-10-14T13:50:25.744Z,21.97
2022-10-14T13:52:57.818Z,21.94
2022-10-14T13:55:25.911Z,22.11
2022-10-14T13:58:15.900Z,21.43
2022-10-14T14:00:57.376Z,21.26
2022-10-14T14:03:34.352Z,21.65
2022-10-14T14:06:03.197Z,21.85
2022-10-14T14:08:40.185Z,20.75
2022-10-14T14:11:17.770Z,21.21
2022-10-14T14:13:59.234Z,21.40
2022-10-14T14:17:03.015Z,21.81
2022-10-14T14:19:37.895Z,21.69
2022-10-14T14:22:14.852Z,22.00
2022-10-14T14:24:41.930Z,21.86
2022-10-14T14:27:26.709Z,21.38
2022-10-14T14:29:55.204Z,21.27
2022-10-14T14:32:28.630Z,21.37
2022-10-14T14:34:56.141Z,21.60
2022-10-14T14:40:30.077Z,21.42
2022-10-14T14:43:03.294Z,21.63
2022-10-14T14:45:42.675Z,21.30
2022-10-14T14:48:13.892Z,20.59
2022-10-14T14:50:44.186Z,20.82
2022-10-14T14:53:11.895Z,21.23
2022-10-14T14:55:44.846Z,21.23
2022-10-14T14:58:30.103Z,21.18
2022-10-14T15:00:57.463Z,20.33
2022-10-14T15:03:27.219Z,20.91
2022-10-14T15:06:05.938Z,21.25
2022-10-14T15:08:36.780Z,20.83
2022-10-14T15:11:04.136Z,20.76
2022-10-14T15:13:49.221Z,20.99
2022-10-14T15:16:42.230Z,21.14
2022-10-14T15:19:20.022Z,20.62
2022-10-14T15:22:16.900Z,20.81
2022-10-14T15:25:03.692Z,20.86
2022-10-14T15:27:35.424Z,20.80
2022-10-14T15:30:17.672Z,21.10
2022-10-14T15:32:44.896Z,21.06
2022-10-14T15:35:17.334Z,21.21
2022-10-14T15:37:44.521Z,21.20
2022-10-14T15:40:17.695Z,21.23
2022-10-14T15:42:46.322Z,21.14
2022-10-14T15:45:14.968Z,21.10
2022-10-14T15:47:42.225Z,21.17
2022-10-14T15:50:19.576Z,21.10
2022-10-14T15:52:56.911Z,20.85
2022-10-14T15:55:30.071Z,20.90
2022-10-14T15:57:57.323Z,20.85
2022-10-14T16:00:24.671Z,20.82
2022-10-14T16:02:58.448Z,20.87
2022-10-14T16:05:29.658Z,20.52
2022-10-14T16:07:57.463Z,20.46
2022-10-14T16:10:25.002Z,20.70
2022-10-14T16:12:51.992Z,20.37
2022-10-14T16:15:44.550Z,20.45
2022-10-14T16:18:11.519Z,20.65
2022-10-14T16:20:38.483Z,20.76
2022-10-14T16:23:05.438Z,20.72
2022-10-14T16:25:43.562Z,20.82
2022-10-14T16:28:13.484Z,20.70
2022-10-14T16:30:48.740Z,20.75
2022-10-14T16:33:21.580Z,20.73
2022-10-14T16:35:53.883Z,20.32
2022-10-14T16:38:21.498Z,20.33
2022-10-14T16:40:59.449Z,20.32
2022-10-14T16:43:28.397Z,20.34
2022-10-14T16:45:59.869Z,20.35
2022-10-14T16:48:28.023Z,20.22
2022-10-14T16:50:55.361Z,20.32
2022-10-14T16:53:48.831Z,20.21
2022-10-14T16:56:39.209Z,20.35
2022-10-14T16:59:08.536Z,20.17
2022-10-14T17:01:35.494Z,20.09
2022-10-14T17:04:03.660Z,20.04
2022-10-14T17:06:30.599Z,20.13
2022-10-14T17:08:57.591Z,20.12
2022-10-14T17:11:27.310Z,20.28
2022-10-14T17:13:57.474Z,20.41
2022-10-14T17:16:24.774Z,20.24
2022-10-14T17:18:52.108Z,20.15
2022-10-14T17:21:20.186Z,20.15
2022-10-14T17:23:47.239Z,20.05
2022-10-14T17:26:18.313Z,20.12
2022-10-14T17:28:47.060Z,20.14
2022-10-14T17:31:22.600Z,20.04
2022-10-14T17:33:50.519Z,20.04
2022-10-14T17:36:30.625Z,19.85
2022-10-14T17:38:58.667Z,20.02
2022-10-14T17:41:28.196Z,20.09
2022-10-14T17:43:57.376Z,19.90
2022-10-14T17:46:27.146Z,19.68
2022-10-14T17:48:56.492Z,19.83
2022-10-14T17:51:25.336Z,19.89
2022-10-14T17:53:53.864Z,19.76
2022-10-14T17:56:21.032Z,19.57
2022-10-14T17:58:51.082Z,19.66
2022-10-14T18:01:17.963Z,19.76
2022-10-14T18:03:45.318Z,19.94
2022-10-14T18:06:19.791Z,19.72
2022-10-14T18:08:50.753Z,19.37
2022-10-14T18:11:19.063Z,19.49
2022-10-14T18:13:50.926Z,19.70
2022-10-14T18:16:17.975Z,19.49
2022-10-14T18:18:46.217Z,19.43
2022-10-14T18:21:15.050Z,19.36
2022-10-14T18:23:41.914Z,19.43
2022-10-14T18:26:16.587Z,19.38
2022-10-14T18:28:46.213Z,19.33
2022-10-14T18:31:15.787Z,19.09
2022-10-14T18:33:43.642Z,18.90
2022-10-14T18:36:16.673Z,19.15
2022-10-14T18:38:51.597Z,19.21
2022-10-14T18:41:19.941Z,19.18
2022-10-14T18:43:46.954Z,19.30
2022-10-14T18:46:22.211Z,19.27
2022-10-14T18:48:51.245Z,19.18
2022-10-14T18:51:20.233Z,19.19
2022-10-14T18:53:48.349Z,19.02
2022-10-14T18:56:21.510Z,19.11
2022-10-14T18:58:52.972Z,19.13
2022-10-14T19:01:20.316Z,18.86
2022-10-14T19:03:48.068Z,18.88
2022-10-14T19:06:15.282Z,18.96
2022-10-14T19:08:42.941Z,18.28
2022-10-14T19:11:21.030Z,18.26
2022-10-14T19:13:50.188Z,18.62
2022-10-14T19:16:27.648Z,18.68
2022-10-14T19:19:04.446Z,18.44
2022-10-14T19:21:32.220Z,18.62
2022-10-14T19:24:00.971Z,18.75
2022-10-14T19:26:31.637Z,18.55
2022-10-14T19:29:00.349Z,18.39
2022-10-14T19:31:30.036Z,18.53
2022-10-14T19:33:59.675Z,18.41
2022-10-14T19:36:27.291Z,18.07
2022-10-14T19:38:58.878Z,18.33
2022-10-14T19:41:28.164Z,18.32
2022-10-14T19:43:57.047Z,18.25
2022-10-14T19:46:27.523Z,18.35
2022-10-14T19:48:59.355Z,18.28
2022-10-14T19:51:27.217Z,18.12
2022-10-14T19:53:55.044Z,18.26
2022-10-14T19:56:22.877Z,18.27
2022-10-14T19:58:52.961Z,18.31
2022-10-14T20:01:22.054Z,18.21
2022-10-14T20:03:49.021Z,18.34
2022-10-14T20:06:15.824Z,18.26
2022-10-14T20:08:43.939Z,18.28
2022-10-14T20:11:13.233Z,18.15
2022-10-14T20:13:40.200Z,18.37
2022-10-14T20:16:09.475Z,18.16
2022-10-14T20:18:37.067Z,18.17
2022-10-14T20:21:06.433Z,17.81
2022-10-14T20:23:35.176Z,17.97
2022-10-14T20:26:22.349Z,18.21
2022-10-14T20:28:50.007Z,18.05
2022-10-14T20:31:19.893Z,18.14
2022-10-14T20:33:47.072Z,18.13
2022-10-14T20:36:16.840Z,18.39
2022-10-14T20:38:44.220Z,18.38
2022-10-14T20:41:14.016Z,18.27
2022-10-14T20:43:42.553Z,18.19
2022-10-14T20:46:10.017Z,18.18
2022-10-14T20:48:39.663Z,18.28
2022-10-14T20:51:09.013Z,18.14
2022-10-14T20:53:35.937Z,18.27
2022-10-14T20:56:05.852Z,18.21
2022-10-14T20:58:33.044Z,18.16
2022-10-14T21:01:08.872Z,18.14
2022-10-14T21:03:36.223Z,18.20
2022-10-14T21:06:08.982Z,18.14
2022-10-14T21:08:36.575Z,18.15
2022-10-14T21:11:10.514Z,18.21
2022-10-14T21:13:42.947Z,18.08
2022-10-14T21:16:21.330Z,18.08
2022-10-14T21:18:55.075Z,18.17
2022-10-14T21:21:29.383Z,18.21
2022-10-14T21:23:58.197Z,18.23
2022-10-14T21:26:25.605Z,18.20
2022-10-14T21:28:52.564Z,18.16
2022-10-14T21:31:20.475Z,18.12
2022-10-14T21:33:48.623Z,18.08
2022-10-14T21:36:16.716Z,18.07
2022-10-14T21:38:43.521Z,18.07
2022-10-14T21:41:11.276Z,18.09
2022-10-14T21:43:38.874Z,18.09
2022-10-14T21:46:08.369Z,18.11
2022-10-14T21:48:35.121Z,18.15
2022-10-14T21:51:04.089Z,18.10
2022-10-14T21:53:32.108Z,18.14
2022-10-14T21:55:59.228Z,18.08
2022-10-14T21:58:26.941Z,18.05
2022-10-14T22:01:08.570Z,18.08
2022-10-14T22:03:36.841Z,17.93
2022-10-14T22:06:06.822Z,17.96
2022-10-14T22:08:45.642Z,17.80
2022-10-14T22:11:31.211Z,18.04
2022-10-14T22:13:59.661Z,17.98
2022-10-14T22:16:28.894Z,17.98
2022-10-14T22:18:59.017Z,17.87
2022-10-14T22:21:28.655Z,17.92
2022-10-14T22:23:55.446Z,18.12
2022-10-14T22:26:23.829Z,18.01
2022-10-14T22:29:13.882Z,18.10
2022-10-14T22:31:40.857Z,18.00
2022-10-14T22:34:10.006Z,17.80
2022-10-14T22:36:36.748Z,17.79
2022-10-14T22:39:07.498Z,17.85
2022-10-14T22:41:35.866Z,17.89
2022-10-14T22:44:04.478Z,17.78
2022-10-14T22:46:33.234Z,17.66
2022-10-14T22:49:01.942Z,17.87
2022-10-14T22:51:35.287Z,17.96
2022-10-14T22:54:02.825Z,17.93
2022-10-14T22:56:31.237Z,17.93
2022-10-14T22:59:00.847Z,17.81
2022-10-14T23:01:28.812Z,17.92
2022-10-14T23:03:56.600Z,17.85
2022-10-14T23:06:24.080Z,17.78
2022-10-14T23:08:51.209Z,17.57
2022-10-14T23:11:20.596Z,17.83
2022-10-14T23:13:48.066Z,17.76
2022-10-14T23:16:17.996Z,17.90
2022-10-14T23:18:45.619Z,17.89
2022-10-14T23:21:17.498Z,17.92
2022-10-14T23:23:45.430Z,17.95
2022-10-14T23:26:16.036Z,17.93
2022-10-14T23:28:43.399Z,18.01
2022-10-14T23:31:13.853Z,17.98
2022-10-14T23:33:41.614Z,17.63
2022-10-14T23:36:10.994Z,17.88
2022-10-14T23:38:38.860Z,17.66
2022-10-14T23:41:07.362Z,17.55
2022-10-14T23:43:34.651Z,17.42
2022-10-14T23:46:02.003Z,17.45
2022-10-14T23:48:29.127Z,17.56
2022-10-14T23:50:56.520Z,17.50
2022-10-14T23:53:26.322Z,17.67
2022-10-14T23:55:53.885Z,17.72
2022-10-14T23:58:20.752Z,17.76
